sensor_id;sensor_type;location;lat;lon;timestamp;pressure;altitude;pressure_sealevel;temperature;humidity
59654;BME280;66556;52.008;5.432;2023-07-13T00:00:54;101311.0;;;42.08;16.78
59654;BME280;66556;52.008;5.432;2023-07-13T00:02:30;101306.0;;;41.15;17.31
59654;BME280;66556;52.008;5.432;2023-07-13T00:04:06;101303.0;;;42.12;16.52
59654;BME280;66556;52.008;5.432;2023-07-13T00:05:42;101300.0;;;43.35;15.45
59654;BME280;66556;52.008;5.432;2023-07-13T00:08:54;101305.0;;;43.23;15.58
59654;BME280;66556;52.008;5.432;2023-07-13T00:10:31;101305.0;;;42.37;16.21
59654;BME280;66556;52.008;5.432;2023-07-13T00:12:27;101310.0;;;40.53;17.8
59654;BME280;66556;52.008;5.432;2023-07-13T00:14:04;101307.0;;;41.86;16.59
59654;BME280;66556;52.008;5.432;2023-07-13T00:17:16;101306.0;;;42.75;16.02
59654;BME280;66556;52.008;5.432;2023-07-13T00:18:52;101305.0;;;43.24;15.37
59654;BME280;66556;52.008;5.432;2023-07-13T00:20:28;101306.0;;;42.68;15.98
59654;BME280;66556;52.008;5.432;2023-07-13T00:23:41;101302.0;;;42.3;16.3
59654;BME280;66556;52.008;5.432;2023-07-13T00:25:18;101301.0;;;43.23;15.34
59654;BME280;66556;52.008;5.432;2023-07-13T00:26:55;101306.0;;;43.35;15.39
59654;BME280;66556;52.008;5.432;2023-07-13T00:30:09;101312.0;;;41.93;16.63
59654;BME280;66556;52.008;5.432;2023-07-13T00:31:47;101310.0;;;42.6;15.89
59654;BME280;66556;52.008;5.432;2023-07-13T00:33:23;101305.0;;;41.88;16.52
59654;BME280;66556;52.008;5.432;2023-07-13T00:34:59;101310.0;;;40.49;17.86
59654;BME280;66556;52.008;5.432;2023-07-13T00:38:11;101305.0;;;41.27;17.11
59654;BME280;66556;52.008;5.432;2023-07-13T00:39:47;101305.0;;;41.36;17.18
59654;BME280;66556;52.008;5.432;2023-07-13T00:41:23;101300.0;;;41.79;16.59
59654;BME280;66556;52.008;5.432;2023-07-13T00:44:36;101300.0;;;42.37;16.25
59654;BME280;66556;52.008;5.432;2023-07-13T00:46:20;101308.0;;;42.0;16.45
59654;BME280;66556;52.008;5.432;2023-07-13T00:48:00;101308.0;;;42.18;16.41
59654;BME280;66556;52.008;5.432;2023-07-13T00:49:36;101307.0;;;42.63;15.91
59654;BME280;66556;52.008;5.432;2023-07-13T00:52:53;101305.0;;;42.61;15.92
59654;BME280;66556;52.008;5.432;2023-07-13T00:54:33;101302.0;;;42.58;15.92
59654;BME280;66556;52.008;5.432;2023-07-13T00:56:16;101307.0;;;42.31;16.12
59654;BME280;66556;52.008;5.432;2023-07-13T00:59:28;101309.0;;;42.39;16.21
59654;BME280;66556;52.008;5.432;2023-07-13T01:01:05;101314.0;;;42.14;16.45
59654;BME280;66556;52.008;5.432;2023-07-13T01:02:42;101315.0;;;41.65;16.77
59654;BME280;66556;52.008;5.432;2023-07-13T01:04:23;101318.0;;;41.6;16.96
59654;BME280;66556;52.008;5.432;2023-07-13T01:09:14;101316.0;;;41.63;17.09
59654;BME280;66556;52.008;5.432;2023-07-13T01:10:52;101316.0;;;42.19;16.45
59654;BME280;66556;52.008;5.432;2023-07-13T01:14:05;101309.0;;;42.58;16.25
59654;BME280;66556;52.008;5.432;2023-07-13T01:15:44;101320.0;;;41.71;16.57
59654;BME280;66556;52.008;5.432;2023-07-13T01:17:20;101315.0;;;41.95;16.62
59654;BME280;66556;52.008;5.432;2023-07-13T01:18:56;101325.0;;;41.67;16.68
59654;BME280;66556;52.008;5.432;2023-07-13T01:22:13;101314.0;;;42.38;16.11
59654;BME280;66556;52.008;5.432;2023-07-13T01:23:51;101310.0;;;42.61;15.9
59654;BME280;66556;52.008;5.432;2023-07-13T01:25:28;101316.0;;;42.43;15.96
59654;BME280;66556;52.008;5.432;2023-07-13T01:28:42;101319.0;;;42.15;16.34
59654;BME280;66556;52.008;5.432;2023-07-13T01:30:19;101318.0;;;42.89;15.67
59654;BME280;66556;52.008;5.432;2023-07-13T01:31:55;101324.0;;;42.52;16.07
59654;BME280;66556;52.008;5.432;2023-07-13T01:33:31;101325.0;;;42.24;16.46
59654;BME280;66556;52.008;5.432;2023-07-13T01:36:43;101326.0;;;42.11;16.68
59654;BME280;66556;52.008;5.432;2023-07-13T01:38:21;101330.0;;;42.24;16.34
59654;BME280;66556;52.008;5.432;2023-07-13T01:39:59;101328.0;;;42.26;16.32
59654;BME280;66556;52.008;5.432;2023-07-13T01:43:11;101331.0;;;41.7;16.63
59654;BME280;66556;52.008;5.432;2023-07-13T01:44:48;101318.0;;;42.42;15.96
59654;BME280;66556;52.008;5.432;2023-07-13T01:46:24;101321.0;;;42.56;16.07
59654;BME280;66556;52.008;5.432;2023-07-13T01:49:37;101326.0;;;41.93;16.63
59654;BME280;66556;52.008;5.432;2023-07-13T01:51:13;101316.0;;;42.6;15.97
59654;BME280;66556;52.008;5.432;2023-07-13T01:52:49;101314.0;;;42.82;15.74
59654;BME280;66556;52.008;5.432;2023-07-13T01:54:25;101319.0;;;41.94;16.36
59654;BME280;66556;52.008;5.432;2023-07-13T01:57:37;101316.0;;;41.02;17.21
59654;BME280;66556;52.008;5.432;2023-07-13T01:59:13;101322.0;;;40.81;17.62
59654;BME280;66556;52.008;5.432;2023-07-13T02:00:51;101324.0;;;41.19;17.36
59654;BME280;66556;52.008;5.432;2023-07-13T02:04:04;101331.0;;;41.0;17.41
59654;BME280;66556;52.008;5.432;2023-07-13T02:05:40;101332.0;;;41.1;17.2
59654;BME280;66556;52.008;5.432;2023-07-13T02:07:16;101334.0;;;40.6;17.81
59654;BME280;66556;52.008;5.432;2023-07-13T02:10:29;101335.0;;;41.02;17.31
59654;BME280;66556;52.008;5.432;2023-07-13T02:12:06;101334.0;;;41.08;17.38
59654;BME280;66556;52.008;5.432;2023-07-13T02:13:43;101336.0;;;40.96;17.59
59654;BME280;66556;52.008;5.432;2023-07-13T02:16:55;101332.0;;;41.95;16.55
59654;BME280;66556;52.008;5.432;2023-07-13T02:18:31;101337.0;;;41.99;16.97
59654;BME280;66556;52.008;5.432;2023-07-13T02:20:08;101333.0;;;41.87;16.95
59654;BME280;66556;52.008;5.432;2023-07-13T02:21:44;101333.0;;;42.16;16.54
59654;BME280;66556;52.008;5.432;2023-07-13T02:24:57;101334.0;;;42.07;16.75
59654;BME280;66556;52.008;5.432;2023-07-13T02:26:33;101334.0;;;42.04;16.98
59654;BME280;66556;52.008;5.432;2023-07-13T02:28:10;101340.0;;;41.31;17.43
59654;BME280;66556;52.008;5.432;2023-07-13T02:31:22;101339.0;;;41.87;17.22
59654;BME280;66556;52.008;5.432;2023-07-13T02:32:58;101338.0;;;42.1;16.75
59654;BME280;66556;52.008;5.432;2023-07-13T02:34:35;101342.0;;;41.65;17.09
59654;BME280;66556;52.008;5.432;2023-07-13T02:37:49;101349.0;;;41.61;17.3
59654;BME280;66556;52.008;5.432;2023-07-13T02:39:25;101348.0;;;41.53;17.18
59654;BME280;66556;52.008;5.432;2023-07-13T02:41:01;101343.0;;;41.43;17.41
59654;BME280;66556;52.008;5.432;2023-07-13T02:42:37;101336.0;;;42.03;16.91
59654;BME280;66556;52.008;5.432;2023-07-13T02:45:50;101340.0;;;41.99;17.13
59654;BME280;66556;52.008;5.432;2023-07-13T02:47:26;101339.0;;;42.32;16.86
59654;BME280;66556;52.008;5.432;2023-07-13T02:49:03;101335.0;;;42.12;16.86
59654;BME280;66556;52.008;5.432;2023-07-13T02:52:16;101338.0;;;41.96;17.09
59654;BME280;66556;52.008;5.432;2023-07-13T02:53:52;101341.0;;;41.82;17.25
59654;BME280;66556;52.008;5.432;2023-07-13T02:55:28;101340.0;;;41.53;17.63
59654;BME280;66556;52.008;5.432;2023-07-13T02:58:41;101339.0;;;41.52;17.57
59654;BME280;66556;52.008;5.432;2023-07-13T03:00:18;101342.0;;;41.71;17.45
59654;BME280;66556;52.008;5.432;2023-07-13T03:01:54;101341.0;;;41.6;17.62
59654;BME280;66556;52.008;5.432;2023-07-13T03:03:30;101346.0;;;41.84;17.2
59654;BME280;66556;52.008;5.432;2023-07-13T03:06:43;101348.0;;;40.64;18.28
59654;BME280;66556;52.008;5.432;2023-07-13T03:08:19;101351.0;;;39.85;19.11
59654;BME280;66556;52.008;5.432;2023-07-13T03:09:56;101355.0;;;40.53;18.59
59654;BME280;66556;52.008;5.432;2023-07-13T03:13:09;101349.0;;;40.35;18.77
59654;BME280;66556;52.008;5.432;2023-07-13T03:14:45;101357.0;;;40.1;19.0
59654;BME280;66556;52.008;5.432;2023-07-13T03:16:21;101350.0;;;39.74;19.04
59654;BME280;66556;52.008;5.432;2023-07-13T03:19:34;101357.0;;;39.94;19.06
59654;BME280;66556;52.008;5.432;2023-07-13T03:22:47;101357.0;;;40.1;19.12
59654;BME280;66556;52.008;5.432;2023-07-13T03:24:23;101359.0;;;40.17;19.09
59654;BME280;66556;52.008;5.432;2023-07-13T03:27:41;101361.0;;;40.24;19.04
59654;BME280;66556;52.008;5.432;2023-07-13T03:29:17;101362.0;;;39.65;19.41
59654;BME280;66556;52.008;5.432;2023-07-13T03:30:59;101367.0;;;40.67;18.48
59654;BME280;66556;52.008;5.432;2023-07-13T03:34:12;101363.0;;;40.85;18.16
59654;BME280;66556;52.008;5.432;2023-07-13T03:35:47;101370.0;;;41.59;17.43
59654;BME280;66556;52.008;5.432;2023-07-13T03:37:24;101366.0;;;41.16;18.14
59654;BME280;66556;52.008;5.432;2023-07-13T03:39:01;101368.0;;;41.42;17.86
59654;BME280;66556;52.008;5.432;2023-07-13T03:42:14;101363.0;;;41.3;17.87
59654;BME280;66556;52.008;5.432;2023-07-13T03:43:51;101364.0;;;41.65;17.59
59654;BME280;66556;52.008;5.432;2023-07-13T03:45:27;101367.0;;;41.36;17.86
59654;BME280;66556;52.008;5.432;2023-07-13T03:48:40;101365.0;;;40.96;18.36
59654;BME280;66556;52.008;5.432;2023-07-13T03:50:16;101369.0;;;41.07;18.23
59654;BME280;66556;52.008;5.432;2023-07-13T03:51:52;101374.0;;;41.61;17.64
59654;BME280;66556;52.008;5.432;2023-07-13T03:55:05;101376.0;;;41.44;17.97
59654;BME280;66556;52.008;5.432;2023-07-13T03:56:41;101385.0;;;41.63;17.7
59654;BME280;66556;52.008;5.432;2023-07-13T03:58:35;101381.0;;;41.9;17.45
59654;BME280;66556;52.008;5.432;2023-07-13T04:00:13;101385.0;;;41.91;17.32
59654;BME280;66556;52.008;5.432;2023-07-13T04:03:27;101389.0;;;41.55;17.87
59654;BME280;66556;52.008;5.432;2023-07-13T04:05:04;101397.0;;;40.58;18.32
59654;BME280;66556;52.008;5.432;2023-07-13T04:06:40;101394.0;;;41.48;17.97
59654;BME280;66556;52.008;5.432;2023-07-13T04:09:53;101397.0;;;40.82;18.09
59654;BME280;66556;52.008;5.432;2023-07-13T04:11:30;101396.0;;;39.65;19.46
59654;BME280;66556;52.008;5.432;2023-07-13T04:13:08;101398.0;;;40.47;18.98
59654;BME280;66556;52.008;5.432;2023-07-13T04:14:44;101395.0;;;40.74;18.66
59654;BME280;66556;52.008;5.432;2023-07-13T04:17:58;101396.0;;;41.07;18.45
59654;BME280;66556;52.008;5.432;2023-07-13T04:19:34;101399.0;;;41.5;17.97
59654;BME280;66556;52.008;5.432;2023-07-13T04:21:11;101405.0;;;40.31;19.09
59654;BME280;66556;52.008;5.432;2023-07-13T04:24:24;101406.0;;;41.39;18.12
59654;BME280;66556;52.008;5.432;2023-07-13T04:26:00;101403.0;;;42.16;17.75
59654;BME280;66556;52.008;5.432;2023-07-13T04:27:36;101402.0;;;42.47;17.27
59654;BME280;66556;52.008;5.432;2023-07-13T04:29:12;101410.0;;;41.13;18.43
59654;BME280;66556;52.008;5.432;2023-07-13T04:32:25;101407.0;;;41.31;18.45
59654;BME280;66556;52.008;5.432;2023-07-13T04:34:02;101414.0;;;41.62;18.12
59654;BME280;66556;52.008;5.432;2023-07-13T04:35:38;101416.0;;;40.15;19.41
59654;BME280;66556;52.008;5.432;2023-07-13T04:38:51;101417.0;;;40.03;19.68
59654;BME280;66556;52.008;5.432;2023-07-13T04:40:28;101415.0;;;40.68;19.06
59654;BME280;66556;52.008;5.432;2023-07-13T04:42:05;101417.0;;;40.14;19.43
59654;BME280;66556;52.008;5.432;2023-07-13T04:45:18;101415.0;;;41.62;18.43
59654;BME280;66556;52.008;5.432;2023-07-13T04:46:54;101418.0;;;41.3;18.46
59654;BME280;66556;52.008;5.432;2023-07-13T04:48:30;101420.0;;;40.5;19.31
59654;BME280;66556;52.008;5.432;2023-07-13T04:51:44;101420.0;;;40.61;19.2
59654;BME280;66556;52.008;5.432;2023-07-13T04:53:20;101416.0;;;40.99;18.93
59654;BME280;66556;52.008;5.432;2023-07-13T04:54:56;101416.0;;;40.82;19.02
59654;BME280;66556;52.008;5.432;2023-07-13T04:56:33;101419.0;;;40.68;19.41
59654;BME280;66556;52.008;5.432;2023-07-13T04:59:45;101416.0;;;40.58;19.48
59654;BME280;66556;52.008;5.432;2023-07-13T05:01:21;101412.0;;;40.74;19.46
59654;BME280;66556;52.008;5.432;2023-07-13T05:02:58;101415.0;;;41.27;18.73
59654;BME280;66556;52.008;5.432;2023-07-13T05:06:10;101419.0;;;40.87;19.36
59654;BME280;66556;52.008;5.432;2023-07-13T05:07:46;101421.0;;;40.71;19.31
59654;BME280;66556;52.008;5.432;2023-07-13T05:09:22;101423.0;;;41.39;18.73
59654;BME280;66556;52.008;5.432;2023-07-13T05:12:36;101423.0;;;41.65;18.5
59654;BME280;66556;52.008;5.432;2023-07-13T05:14:12;101421.0;;;42.37;17.93
59654;BME280;66556;52.008;5.432;2023-07-13T05:15:55;101424.0;;;41.38;18.86
59654;BME280;66556;52.008;5.432;2023-07-13T05:17:32;101425.0;;;42.63;17.79
59654;BME280;66556;52.008;5.432;2023-07-13T05:20:46;101434.0;;;41.27;19.04
59654;BME280;66556;52.008;5.432;2023-07-13T05:22:23;101431.0;;;41.15;19.09
59654;BME280;66556;52.008;5.432;2023-07-13T05:23:59;101432.0;;;41.6;18.82
59654;BME280;66556;52.008;5.432;2023-07-13T05:27:11;101436.0;;;41.72;18.87
59654;BME280;66556;52.008;5.432;2023-07-13T05:28:47;101434.0;;;40.83;19.71
59654;BME280;66556;52.008;5.432;2023-07-13T05:30:23;101440.0;;;40.81;19.7
59654;BME280;66556;52.008;5.432;2023-07-13T05:32:00;101439.0;;;41.89;18.8
59654;BME280;66556;52.008;5.432;2023-07-13T05:35:12;101443.0;;;40.74;19.89
59654;BME280;66556;52.008;5.432;2023-07-13T05:36:48;101443.0;;;42.06;18.84
59654;BME280;66556;52.008;5.432;2023-07-13T05:38:25;101449.0;;;41.49;19.18
59654;BME280;66556;52.008;5.432;2023-07-13T05:41:37;101449.0;;;42.55;18.32
59654;BME280;66556;52.008;5.432;2023-07-13T05:43:14;101452.0;;;41.57;19.05
59654;BME280;66556;52.008;5.432;2023-07-13T05:44:51;101451.0;;;41.58;19.11
59654;BME280;66556;52.008;5.432;2023-07-13T05:48:04;101455.0;;;42.54;18.27
59654;BME280;66556;52.008;5.432;2023-07-13T05:49:40;101452.0;;;42.32;18.54
59654;BME280;66556;52.008;5.432;2023-07-13T05:51:16;101450.0;;;43.26;17.91
59654;BME280;66556;52.008;5.432;2023-07-13T05:54:29;101465.0;;;41.71;19.39
59654;BME280;66556;52.008;5.432;2023-07-13T05:56:05;101464.0;;;42.19;18.86
59654;BME280;66556;52.008;5.432;2023-07-13T05:57:41;101462.0;;;42.07;18.78
59654;BME280;66556;52.008;5.432;2023-07-13T05:59:17;101463.0;;;41.22;19.82
59654;BME280;66556;52.008;5.432;2023-07-13T06:02:36;101462.0;;;42.38;18.77
59654;BME280;66556;52.008;5.432;2023-07-13T06:04:13;101467.0;;;41.15;19.75
59654;BME280;66556;52.008;5.432;2023-07-13T06:05:49;101473.0;;;40.96;20.12
59654;BME280;66556;52.008;5.432;2023-07-13T06:09:01;101476.0;;;40.37;20.61
59654;BME280;66556;52.008;5.432;2023-07-13T06:12:14;101480.0;;;41.19;19.82
59654;BME280;66556;52.008;5.432;2023-07-13T06:13:51;101480.0;;;41.36;19.87
59654;BME280;66556;52.008;5.432;2023-07-13T06:17:04;101481.0;;;40.5;20.72
59654;BME280;66556;52.008;5.432;2023-07-13T06:18:41;101487.0;;;41.13;20.25
59654;BME280;66556;52.008;5.432;2023-07-13T06:20:18;101494.0;;;41.08;20.5
59654;BME280;66556;52.008;5.432;2023-07-13T06:23:30;101495.0;;;39.46;21.93
59654;BME280;66556;52.008;5.432;2023-07-13T06:25:07;101493.0;;;41.68;20.2
59654;BME280;66556;52.008;5.432;2023-07-13T06:26:43;101498.0;;;41.68;19.56
59654;BME280;66556;52.008;5.432;2023-07-13T06:29:55;101498.0;;;41.78;19.34
59654;BME280;66556;52.008;5.432;2023-07-13T06:31:31;101499.0;;;43.32;18.59
59654;BME280;66556;52.008;5.432;2023-07-13T06:33:07;101506.0;;;42.61;18.55
59654;BME280;66556;52.008;5.432;2023-07-13T06:34:43;101509.0;;;41.72;19.32
59654;BME280;66556;52.008;5.432;2023-07-13T06:37:56;101500.0;;;43.54;17.8
59654;BME280;66556;52.008;5.432;2023-07-13T06:39:32;101505.0;;;43.21;18.16
59654;BME280;66556;52.008;5.432;2023-07-13T06:41:09;101510.0;;;41.88;19.11
59654;BME280;66556;52.008;5.432;2023-07-13T06:44:21;101507.0;;;40.82;20.29
59654;BME280;66556;52.008;5.432;2023-07-13T06:45:57;101509.0;;;41.1;20.11
59654;BME280;66556;52.008;5.432;2023-07-13T06:47:34;101508.0;;;41.59;19.93
59654;BME280;66556;52.008;5.432;2023-07-13T06:50:48;101512.0;;;41.46;19.93
59654;BME280;66556;52.008;5.432;2023-07-13T06:52:25;101509.0;;;42.09;19.37
59654;BME280;66556;52.008;5.432;2023-07-13T06:57:14;101518.0;;;42.57;19.05
59654;BME280;66556;52.008;5.432;2023-07-13T06:58:50;101508.0;;;43.53;18.05
59654;BME280;66556;52.008;5.432;2023-07-13T07:00:26;101522.0;;;42.75;18.53
59654;BME280;66556;52.008;5.432;2023-07-13T07:02:03;101517.0;;;43.72;17.72
59654;BME280;66556;52.008;5.432;2023-07-13T07:05:16;101518.0;;;43.07;18.52
59654;BME280;66556;52.008;5.432;2023-07-13T07:06:52;101515.0;;;43.01;18.46
59654;BME280;66556;52.008;5.432;2023-07-13T07:08:28;101516.0;;;42.74;18.7
59654;BME280;66556;52.008;5.432;2023-07-13T07:11:42;101524.0;;;43.0;18.5
59654;BME280;66556;52.008;5.432;2023-07-13T07:13:18;101530.0;;;42.07;19.59
59654;BME280;66556;52.008;5.432;2023-07-13T07:14:55;101527.0;;;42.52;19.18
59654;BME280;66556;52.008;5.432;2023-07-13T07:18:07;101527.0;;;43.15;18.63
59654;BME280;66556;52.008;5.432;2023-07-13T07:19:43;101526.0;;;43.63;18.52
59654;BME280;66556;52.008;5.432;2023-07-13T07:21:19;101531.0;;;42.82;19.22
59654;BME280;66556;52.008;5.432;2023-07-13T07:22:55;101533.0;;;42.51;19.22
59654;BME280;66556;52.008;5.432;2023-07-13T07:26:08;101530.0;;;43.0;18.93
59654;BME280;66556;52.008;5.432;2023-07-13T07:27:45;101528.0;;;43.72;17.93
59654;BME280;66556;52.008;5.432;2023-07-13T07:29:21;101530.0;;;44.6;17.56
59654;BME280;66556;52.008;5.432;2023-07-13T07:32:34;101532.0;;;43.33;18.52
59654;BME280;66556;52.008;5.432;2023-07-13T07:34:10;101535.0;;;42.95;19.11
59654;BME280;66556;52.008;5.432;2023-07-13T07:35:47;101527.0;;;43.36;19.02
59654;BME280;66556;52.008;5.432;2023-07-13T07:39:00;101521.0;;;44.4;17.79
59654;BME280;66556;52.008;5.432;2023-07-13T07:40:37;101524.0;;;44.21;17.86
59654;BME280;66556;52.008;5.432;2023-07-13T07:42:13;101523.0;;;43.86;18.27
59654;BME280;66556;52.008;5.432;2023-07-13T07:43:49;101521.0;;;44.37;18.27
59654;BME280;66556;52.008;5.432;2023-07-13T07:47:03;101530.0;;;42.13;19.43
59654;BME280;66556;52.008;5.432;2023-07-13T07:48:40;101522.0;;;43.37;18.75
59654;BME280;66556;52.008;5.432;2023-07-13T07:50:16;101528.0;;;43.55;18.02
59654;BME280;66556;52.008;5.432;2023-07-13T07:53:28;101518.0;;;44.73;17.18
59654;BME280;66556;52.008;5.432;2023-07-13T07:55:06;101524.0;;;44.65;17.0
59654;BME280;66556;52.008;5.432;2023-07-13T07:56:43;101526.0;;;45.3;16.62
59654;BME280;66556;52.008;5.432;2023-07-13T07:59:57;101531.0;;;42.71;18.62
59654;BME280;66556;52.008;5.432;2023-07-13T08:01:32;101526.0;;;43.47;18.11
59654;BME280;66556;52.008;5.432;2023-07-13T08:03:09;101530.0;;;43.0;18.53
59654;BME280;66556;52.008;5.432;2023-07-13T08:04:46;101530.0;;;43.26;18.61
59654;BME280;66556;52.008;5.432;2023-07-13T08:08:00;101536.0;;;42.91;18.86
59654;BME280;66556;52.008;5.432;2023-07-13T08:09:36;101528.0;;;42.1;19.31
59654;BME280;66556;52.008;5.432;2023-07-13T08:11:12;101524.0;;;43.74;19.16
59654;BME280;66556;52.008;5.432;2023-07-13T08:14:25;101521.0;;;44.4;18.84
59654;BME280;66556;52.008;5.432;2023-07-13T08:16:03;101525.0;;;43.38;18.36
59654;BME280;66556;52.008;5.432;2023-07-13T08:17:40;101519.0;;;44.4;17.3
59654;BME280;66556;52.008;5.432;2023-07-13T08:20:53;101514.0;;;45.44;17.06
59654;BME280;66556;52.008;5.432;2023-07-13T08:22:30;101512.0;;;44.45;18.13
59654;BME280;66556;52.008;5.432;2023-07-13T08:24:06;101508.0;;;44.94;17.16
59654;BME280;66556;52.008;5.432;2023-07-13T08:25:50;101510.0;;;43.62;17.63
59654;BME280;66556;52.008;5.432;2023-07-13T08:29:04;101511.0;;;44.12;17.75
59654;BME280;66556;52.008;5.432;2023-07-13T08:30:40;101522.0;;;44.38;17.48
59654;BME280;66556;52.008;5.432;2023-07-13T08:32:17;101522.0;;;42.84;18.12
59654;BME280;66556;52.008;5.432;2023-07-13T08:35:32;101522.0;;;43.79;17.55
59654;BME280;66556;52.008;5.432;2023-07-13T08:37:09;101519.0;;;43.86;17.36
59654;BME280;66556;52.008;5.432;2023-07-13T08:38:45;101525.0;;;44.12;16.77
59654;BME280;66556;52.008;5.432;2023-07-13T08:40:24;101526.0;;;44.45;17.55
59654;BME280;66556;52.008;5.432;2023-07-13T08:43:50;101532.0;;;44.73;17.0
59654;BME280;66556;52.008;5.432;2023-07-13T08:45:38;101534.0;;;44.65;16.61
59654;BME280;66556;52.008;5.432;2023-07-13T08:47:21;101533.0;;;44.73;16.39
59654;BME280;66556;52.008;5.432;2023-07-13T08:49:03;101544.0;;;43.26;16.82
59654;BME280;66556;52.008;5.432;2023-07-13T08:52:36;101541.0;;;44.08;16.72
59654;BME280;66556;52.008;5.432;2023-07-13T08:54:20;101545.0;;;43.39;17.59
59654;BME280;66556;52.008;5.432;2023-07-13T08:55:59;101549.0;;;43.97;17.09
59654;BME280;66556;52.008;5.432;2023-07-13T08:57:38;101560.0;;;43.33;17.43
59654;BME280;66556;52.008;5.432;2023-07-13T08:59:18;101561.0;;;42.63;17.8
59654;BME280;66556;52.008;5.432;2023-07-13T09:02:46;101559.0;;;42.22;18.0
59654;BME280;66556;52.008;5.432;2023-07-13T09:06:13;101555.0;;;42.97;18.09
59654;BME280;66556;52.008;5.432;2023-07-13T09:08:02;101555.0;;;43.7;17.43
59654;BME280;66556;52.008;5.432;2023-07-13T09:09:55;101552.0;;;43.52;17.87
59654;BME280;66556;52.008;5.432;2023-07-13T09:11:50;101555.0;;;43.78;17.57
59654;BME280;66556;52.008;5.432;2023-07-13T09:15:26;101557.0;;;44.41;17.48
59654;BME280;66556;52.008;5.432;2023-07-13T09:17:10;101550.0;;;45.27;16.4
59654;BME280;66556;52.008;5.432;2023-07-13T09:18:50;101551.0;;;45.59;16.68
59654;BME280;66556;52.008;5.432;2023-07-13T09:20:33;101551.0;;;46.37;15.5
59654;BME280;66556;52.008;5.432;2023-07-13T09:22:16;101551.0;;;46.26;15.99
59654;BME280;66556;52.008;5.432;2023-07-13T09:26:02;101551.0;;;45.7;16.48
59654;BME280;66556;52.008;5.432;2023-07-13T09:27:44;101546.0;;;47.55;14.54
59654;BME280;66556;52.008;5.432;2023-07-13T09:29:29;101547.0;;;46.89;15.54
59654;BME280;66556;52.008;5.432;2023-07-13T09:31:09;101541.0;;;47.6;15.3
59654;BME280;66556;52.008;5.432;2023-07-13T09:32:51;101542.0;;;47.24;15.37
59654;BME280;66556;52.008;5.432;2023-07-13T09:36:18;101547.0;;;46.81;16.53
59654;BME280;66556;52.008;5.432;2023-07-13T09:38:04;101546.0;;;46.26;15.58
59654;BME280;66556;52.008;5.432;2023-07-13T09:39:46;101545.0;;;46.45;15.24
59654;BME280;66556;52.008;5.432;2023-07-13T09:41:29;101548.0;;;46.91;14.97
59654;BME280;66556;52.008;5.432;2023-07-13T09:43:12;101547.0;;;46.47;15.71
59654;BME280;66556;52.008;5.432;2023-07-13T09:46:30;101543.0;;;46.57;15.07
59654;BME280;66556;52.008;5.432;2023-07-13T09:48:11;101541.0;;;47.4;15.02
59654;BME280;66556;52.008;5.432;2023-07-13T09:49:54;101542.0;;;47.46;14.15
59654;BME280;66556;52.008;5.432;2023-07-13T09:51:31;101540.0;;;47.2;14.49
59654;BME280;66556;52.008;5.432;2023-07-13T09:54:50;101553.0;;;45.89;15.44
59654;BME280;66556;52.008;5.432;2023-07-13T09:56:29;101558.0;;;46.7;15.0
59654;BME280;66556;52.008;5.432;2023-07-13T09:58:10;101557.0;;;45.0;16.36
59654;BME280;66556;52.008;5.432;2023-07-13T09:59:50;101548.0;;;46.39;16.05
59654;BME280;66556;52.008;5.432;2023-07-13T10:03:17;101548.0;;;46.08;17.27
59654;BME280;66556;52.008;5.432;2023-07-13T10:04:57;101549.0;;;45.93;16.77
59654;BME280;66556;52.008;5.432;2023-07-13T10:06:34;101549.0;;;45.01;16.45
59654;BME280;66556;52.008;5.432;2023-07-13T10:08:21;101551.0;;;45.96;15.11
59654;BME280;66556;52.008;5.432;2023-07-13T10:11:39;101549.0;;;45.95;14.71
59654;BME280;66556;52.008;5.432;2023-07-13T10:13:27;101551.0;;;45.5;15.21
59654;BME280;66556;52.008;5.432;2023-07-13T10:15:15;101551.0;;;45.53;15.27
59654;BME280;66556;52.008;5.432;2023-07-13T10:16:59;101566.0;;;44.95;15.7
59654;BME280;66556;52.008;5.432;2023-07-13T10:18:41;101565.0;;;45.38;15.3
59654;BME280;66556;52.008;5.432;2023-07-13T10:22:00;101568.0;;;44.86;15.66
59654;BME280;66556;52.008;5.432;2023-07-13T10:23:38;101572.0;;;45.94;14.66
59654;BME280;66556;52.008;5.432;2023-07-13T10:25:17;101569.0;;;45.53;15.06
59654;BME280;66556;52.008;5.432;2023-07-13T10:28:52;101576.0;;;45.4;14.98
59654;BME280;66556;52.008;5.432;2023-07-13T10:30:33;101576.0;;;46.38;14.47
59654;BME280;66556;52.008;5.432;2023-07-13T10:32:14;101580.0;;;46.6;14.5
59654;BME280;66556;52.008;5.432;2023-07-13T10:33:51;101577.0;;;47.64;14.59
59654;BME280;66556;52.008;5.432;2023-07-13T10:35:29;101577.0;;;47.32;13.45
59654;BME280;66556;52.008;5.432;2023-07-13T10:38:53;101581.0;;;46.07;14.9
59654;BME280;66556;52.008;5.432;2023-07-13T10:40:35;101605.0;;;44.12;17.71
59654;BME280;66556;52.008;5.432;2023-07-13T10:42:17;101586.0;;;44.07;16.75
59654;BME280;66556;52.008;5.432;2023-07-13T10:44:18;101589.0;;;45.24;17.36
59654;BME280;66556;52.008;5.432;2023-07-13T10:45:56;101593.0;;;44.95;17.18
59654;BME280;66556;52.008;5.432;2023-07-13T10:49:10;101591.0;;;44.54;17.53
59654;BME280;66556;52.008;5.432;2023-07-13T10:50:50;101595.0;;;45.76;16.98
59654;BME280;66556;52.008;5.432;2023-07-13T10:52:46;101593.0;;;46.45;16.36
59654;BME280;66556;52.008;5.432;2023-07-13T10:54:27;101592.0;;;46.25;16.93
59654;BME280;66556;52.008;5.432;2023-07-13T10:58:01;101594.0;;;47.23;16.45
59654;BME280;66556;52.008;5.432;2023-07-13T10:59:38;101588.0;;;47.79;16.45
59654;BME280;66556;52.008;5.432;2023-07-13T11:01:16;101589.0;;;47.84;16.32
59654;BME280;66556;52.008;5.432;2023-07-13T11:02:57;101591.0;;;46.97;15.32
59654;BME280;66556;52.008;5.432;2023-07-13T11:06:33;101592.0;;;46.59;15.38
59654;BME280;66556;52.008;5.432;2023-07-13T11:08:18;101592.0;;;47.45;15.76
59654;BME280;66556;52.008;5.432;2023-07-13T11:09:57;101586.0;;;48.06;14.9
59654;BME280;66556;52.008;5.432;2023-07-13T11:11:38;101591.0;;;48.48;13.91
59654;BME280;66556;52.008;5.432;2023-07-13T11:13:37;101596.0;;;48.45;14.58
59654;BME280;66556;52.008;5.432;2023-07-13T11:15:44;101600.0;;;47.04;14.56